createdAt,value
2018-10-06T00:00:07.492Z,9.70
2018-10-06T00:02:35.761Z,9.60
2018-10-06T00:05:03.866Z,9.60
2018-10-06T00:07:31.094Z,9.60
2018-10-06T00:09:58.545Z,9.50
2018-10-06T00:12:25.977Z,9.60
2018-10-06T00:14:53.157Z,9.60
2018-10-06T00:17:20.325Z,9.50
2018-10-06T00:19:47.472Z,9.50
2018-10-06T00:22:14.801Z,9.60
2018-10-06T00:24:41.946Z,9.50
2018-10-06T00:27:09.229Z,9.50
2018-10-06T00:29:36.622Z,9.50
2018-10-06T00:32:03.866Z,9.50
2018-10-06T00:34:31.464Z,9.50
2018-10-06T00:36:58.646Z,9.40
2018-10-06T00:39:25.835Z,9.40
2018-10-06T00:41:53.049Z,9.40
2018-10-06T00:44:20.270Z,9.40
2018-10-06T00:46:47.586Z,9.40
2018-10-06T00:49:14.793Z,9.30
2018-10-06T00:51:42.001Z,9.30
2018-10-06T00:54:09.154Z,9.30
2018-10-06T00:56:36.338Z,9.30
2018-10-06T00:59:03.517Z,9.30
2018-10-06T01:01:30.682Z,9.30
2018-10-06T01:03:57.866Z,9.20
2018-10-06T01:06:25.214Z,9.20
2018-10-06T01:08:52.666Z,9.20
2018-10-06T01:11:19.836Z,9.20
2018-10-06T01:13:47.073Z,9.20
2018-10-06T01:16:14.317Z,9.20
2018-10-06T01:18:41.729Z,9.20
2018-10-06T01:21:08.960Z,9.20
2018-10-06T01:23:36.207Z,9.20
2018-10-06T01:26:03.426Z,9.10
2018-10-06T01:28:30.606Z,9.10
2018-10-06T01:30:57.754Z,9.10
2018-10-06T01:33:24.897Z,9.10
2018-10-06T01:35:52.085Z,9.00
2018-10-06T01:38:19.254Z,9.00
2018-10-06T01:40:46.459Z,9.00
2018-10-06T01:43:14.035Z,9.00
2018-10-06T01:45:41.206Z,9.00
2018-10-06T01:48:08.422Z,9.00
2018-10-06T01:50:35.597Z,9.00
2018-10-06T01:53:02.779Z,8.90
2018-10-06T01:55:30.021Z,8.90
2018-10-06T01:57:57.226Z,8.90
2018-10-06T02:00:24.412Z,8.90
2018-10-06T02:02:51.721Z,8.90
2018-10-06T02:05:18.937Z,8.90
2018-10-06T02:07:46.177Z,8.90
2018-10-06T02:10:13.455Z,8.90
2018-10-06T02:12:40.680Z,8.90
2018-10-06T02:15:07.977Z,8.90
2018-10-06T02:17:35.189Z,8.80
2018-10-06T02:20:02.475Z,8.80
2018-10-06T02:22:29.681Z,8.80
2018-10-06T02:24:56.984Z,8.80
2018-10-06T02:27:24.210Z,8.80
2018-10-06T02:29:51.488Z,8.80
2018-10-06T02:32:18.750Z,8.70
2018-10-06T02:34:45.962Z,8.70
2018-10-06T02:37:13.272Z,8.70
2018-10-06T02:39:40.826Z,8.70
2018-10-06T02:42:08.103Z,8.60
2018-10-06T02:44:35.413Z,8.60
2018-10-06T02:47:02.633Z,8.60
2018-10-06T02:49:29.862Z,8.60
2018-10-06T02:51:57.184Z,8.60
2018-10-06T02:54:24.379Z,8.50
2018-10-06T02:56:51.621Z,8.50
2018-10-06T02:59:18.902Z,8.50
2018-10-06T03:01:46.114Z,8.50
2018-10-06T03:04:13.481Z,8.50
2018-10-06T03:06:40.810Z,8.50
2018-10-06T03:09:08.732Z,8.40
2018-10-06T03:11:36.027Z,8.40
2018-10-06T03:14:03.281Z,8.40
2018-10-06T03:16:30.478Z,8.40
2018-10-06T03:18:57.720Z,8.40
2018-10-06T03:21:24.955Z,8.30
2018-10-06T03:23:52.226Z,8.40
2018-10-06T03:26:19.618Z,8.40
2018-10-06T03:28:46.865Z,8.40
2018-10-06T03:31:14.094Z,8.40
2018-10-06T03:33:41.490Z,8.40
2018-10-06T03:36:08.713Z,8.40
2018-10-06T03:38:35.966Z,8.40
2018-10-06T03:41:03.245Z,8.30
2018-10-06T03:43:30.439Z,8.30
2018-10-06T03:45:57.795Z,8.40
2018-10-06T03:48:25.122Z,8.40
2018-10-06T03:50:52.318Z,8.50
2018-10-06T03:53:19.573Z,8.60
2018-10-06T03:55:46.852Z,8.70
2018-10-06T03:58:14.134Z,8.70
2018-10-06T04:00:41.310Z,8.70
2018-10-06T04:03:08.733Z,8.80
2018-10-06T04:05:35.914Z,8.80
2018-10-06T04:08:03.205Z,8.90
2018-10-06T04:10:30.433Z,8.90
2018-10-06T04:12:57.730Z,9.00
2018-10-06T04:15:25.062Z,9.00
2018-10-06T04:17:52.334Z,9.10
2018-10-06T04:20:19.547Z,9.10
2018-10-06T04:22:46.882Z,9.10
2018-10-06T04:25:14.166Z,9.20
2018-10-06T04:27:41.445Z,9.20
2018-10-06T04:30:09.292Z,9.20
2018-10-06T04:32:36.570Z,9.20
2018-10-06T04:35:03.845Z,9.20
2018-10-06T04:37:31.105Z,9.20
2018-10-06T04:39:58.378Z,9.20
2018-10-06T04:42:25.714Z,9.10
2018-10-06T04:44:52.954Z,9.20
2018-10-06T04:47:20.194Z,9.10
2018-10-06T04:49:47.422Z,9.10
2018-10-06T04:52:14.722Z,9.10
2018-10-06T04:54:41.985Z,9.10
2018-10-06T04:57:09.194Z,9.10
2018-10-06T04:59:36.468Z,9.00
2018-10-06T05:02:03.699Z,9.00
2018-10-06T05:04:31.087Z,9.00
2018-10-06T05:06:58.289Z,9.00
2018-10-06T05:09:25.582Z,9.00
2018-10-06T05:11:52.794Z,9.10
2018-10-06T05:14:20.050Z,9.10
2018-10-06T05:16:47.276Z,9.10
2018-10-06T05:19:14.574Z,9.10
2018-10-06T05:21:41.838Z,9.10
2018-10-06T05:24:09.131Z,9.20
2018-10-06T05:26:36.527Z,9.20
2018-10-06T05:29:03.790Z,9.20
2018-10-06T05:31:30.994Z,9.10
2018-10-06T05:33:58.373Z,9.20
2018-10-06T05:36:25.630Z,9.20
2018-10-06T05:38:52.874Z,9.10
2018-10-06T05:41:20.100Z,9.10
2018-10-06T05:43:47.266Z,9.10
2018-10-06T05:46:14.547Z,9.10
2018-10-06T05:48:41.786Z,9.10
2018-10-06T05:51:08.949Z,9.10
2018-10-06T05:53:36.155Z,9.10
2018-10-06T05:56:03.410Z,9.10
2018-10-06T05:58:30.664Z,9.10
2018-10-06T06:00:57.887Z,9.10
2018-10-06T06:03:25.245Z,9.10
2018-10-06T06:05:52.459Z,9.10
2018-10-06T06:08:19.612Z,9.10
2018-10-06T06:10:46.905Z,9.10
2018-10-06T06:13:14.051Z,9.10
2018-10-06T06:15:41.300Z,9.20
2018-10-06T06:18:08.519Z,9.20
2018-10-06T06:20:35.695Z,9.20
2018-10-06T06:23:03.065Z,9.20
2018-10-06T06:25:30.310Z,9.20
2018-10-06T06:27:57.460Z,9.30
2018-10-06T06:30:24.643Z,9.30
2018-10-06T06:32:51.840Z,9.40
2018-10-06T06:35:19.087Z,9.40
2018-10-06T06:37:46.258Z,9.40
2018-10-06T06:40:13.551Z,9.50
2018-10-06T06:42:40.794Z,9.50
2018-10-06T06:45:08.017Z,9.70
2018-10-06T06:47:35.201Z,9.70
2018-10-06T06:50:02.382Z,9.90
2018-10-06T06:52:29.566Z,10.00
2018-10-06T06:54:56.841Z,10.20
2018-10-06T06:57:24.074Z,10.40
2018-10-06T06:59:51.267Z,10.50
2018-10-06T07:02:18.406Z,10.60
2018-10-06T07:04:45.616Z,10.80
2018-10-06T07:07:12.782Z,11.00
2018-10-06T07:09:39.981Z,11.20
2018-10-06T07:12:07.371Z,11.30
2018-10-06T07:14:34.637Z,11.40
2018-10-06T07:17:01.905Z,11.60
2018-10-06T07:19:29.093Z,11.70
2018-10-06T07:21:56.419Z,11.80
2018-10-06T07:24:23.686Z,11.90
2018-10-06T07:26:50.957Z,12.10
2018-10-06T07:29:18.270Z,12.20
2018-10-06T07:31:45.466Z,12.30
2018-10-06T07:34:12.737Z,12.40
2018-10-06T07:36:39.965Z,12.50
2018-10-06T07:39:07.185Z,12.70
2018-10-06T07:41:34.334Z,12.80
2018-10-06T07:44:01.538Z,12.90
2018-10-06T07:46:28.825Z,13.00
2018-10-06T07:48:56.029Z,13.10
2018-10-06T07:51:23.173Z,13.20
2018-10-06T07:53:50.469Z,13.30
2018-10-06T07:56:17.638Z,13.40
2018-10-06T07:58:44.839Z,13.50
2018-10-06T08:01:12.015Z,13.70
2018-10-06T08:03:39.194Z,13.80
2018-10-06T08:06:06.410Z,14.00
2018-10-06T08:08:33.602Z,14.10
2018-10-06T08:11:00.806Z,14.20
2018-10-06T08:13:27.994Z,14.40
2018-10-06T08:15:55.197Z,14.50
2018-10-06T08:18:22.390Z,14.60
2018-10-06T08:20:49.584Z,14.70
2018-10-06T08:23:17.093Z,14.80
2018-10-06T08:25:44.290Z,14.90
2018-10-06T08:28:11.467Z,15.10
2018-10-06T08:30:38.798Z,15.30
2018-10-06T08:33:06.107Z,15.30
2018-10-06T08:35:33.305Z,15.50
2018-10-06T08:38:00.550Z,15.70
2018-10-06T08:40:28.134Z,15.70
2018-10-06T08:42:55.635Z,15.90
2018-10-06T08:45:22.749Z,16.00
2018-10-06T08:47:50.015Z,16.10
2018-10-06T08:50:17.210Z,16.30
2018-10-06T08:52:44.515Z,16.40
2018-10-06T08:55:11.794Z,16.60
2018-10-06T08:57:39.063Z,16.60
2018-10-06T09:00:06.431Z,16.70
2018-10-06T09:02:33.677Z,16.90
2018-10-06T09:05:00.838Z,17.00
2018-10-06T09:07:28.099Z,17.10
2018-10-06T09:09:55.327Z,17.20
2018-10-06T09:12:22.502Z,17.30
2018-10-06T09:14:49.750Z,17.30
2018-10-06T09:17:16.908Z,17.40
2018-10-06T09:19:44.069Z,17.50
2018-10-06T09:22:11.558Z,17.60
2018-10-06T09:24:38.814Z,17.80
2018-10-06T09:27:06.472Z,17.80
2018-10-06T09:29:33.710Z,17.90
2018-10-06T09:32:00.867Z,17.90
2018-10-06T09:34:28.146Z,18.00
2018-10-06T09:36:55.512Z,18.10
2018-10-06T09:39:22.766Z,18.30
2018-10-06T09:41:49.947Z,18.40
2018-10-06T09:44:17.159Z,18.40
2018-10-06T09:46:44.435Z,18.40
2018-10-06T09:49:11.606Z,18.50
2018-10-06T09:51:38.862Z,18.60
2018-10-06T09:54:06.077Z,18.70
2018-10-06T09:56:33.293Z,18.80
2018-10-06T09:59:00.518Z,18.90
2018-10-06T10:01:33.601Z,19.00
2018-10-06T10:04:12.082Z,19.20
2018-10-06T10:06:39.722Z,19.20
2018-10-06T10:09:08.593Z,19.10
2018-10-06T10:11:36.158Z,19.20
2018-10-06T10:14:03.314Z,19.20
2018-10-06T10:16:30.753Z,19.30
2018-10-06T10:18:58.015Z,19.50
2018-10-06T10:21:25.253Z,19.50
2018-10-06T10:23:52.473Z,19.70
2018-10-06T10:26:19.625Z,19.70
2018-10-06T10:28:46.829Z,19.80
2018-10-06T10:31:14.026Z,19.90
2018-10-06T10:33:41.271Z,20.10
2018-10-06T10:36:08.479Z,20.20
2018-10-06T10:38:35.658Z,20.30
2018-10-06T10:41:02.934Z,20.40
2018-10-06T10:43:30.172Z,20.40
2018-10-06T10:45:57.419Z,20.40
2018-10-06T10:48:24.630Z,20.40
2018-10-06T10:50:51.963Z,20.40
2018-10-06T10:53:19.079Z,20.50
2018-10-06T10:55:46.373Z,20.60
2018-10-06T10:58:13.519Z,20.70
2018-10-06T11:00:40.829Z,20.80
2018-10-06T11:03:07.938Z,20.80
2018-10-06T11:05:35.133Z,20.90
2018-10-06T11:08:02.306Z,20.90
2018-10-06T11:10:29.481Z,21.00
2018-10-06T11:12:56.697Z,21.00
2018-10-06T11:15:23.946Z,21.10
2018-10-06T11:17:51.130Z,21.20
2018-10-06T11:20:18.389Z,21.30
2018-10-06T11:22:45.580Z,21.50
2018-10-06T11:25:13.190Z,21.50
2018-10-06T11:27:40.329Z,21.50
2018-10-06T11:30:08.297Z,21.80
2018-10-06T11:32:35.657Z,21.80
2018-10-06T11:35:02.889Z,21.80
2018-10-06T11:37:30.198Z,21.80
2018-10-06T11:39:57.330Z,21.80
2018-10-06T11:42:24.756Z,21.80
2018-10-06T11:44:51.918Z,22.00
2018-10-06T11:47:19.090Z,22.20
2018-10-06T11:49:46.320Z,22.40
2018-10-06T11:52:13.504Z,22.50
2018-10-06T11:54:40.818Z,22.80
2018-10-06T11:57:08.122Z,22.90
2018-10-06T11:59:35.295Z,22.90
2018-10-06T12:02:02.590Z,23.00
2018-10-06T12:04:29.878Z,23.10
2018-10-06T12:06:57.176Z,23.40
2018-10-06T12:09:24.329Z,23.50
2018-10-06T12:11:51.512Z,23.70
2018-10-06T12:14:18.771Z,24.00
2018-10-06T12:16:45.908Z,24.10
2018-10-06T12:19:13.156Z,24.50
2018-10-06T12:21:40.296Z,25.40
2018-10-06T12:24:07.623Z,26.40
2018-10-06T12:26:34.947Z,27.00
2018-10-06T12:29:02.118Z,27.80
2018-10-06T12:31:29.440Z,28.70
2018-10-06T12:33:56.623Z,29.50
2018-10-06T12:36:23.969Z,30.50
2018-10-06T12:38:51.297Z,31.30
2018-10-06T12:41:18.539Z,31.80
2018-10-06T12:43:45.778Z,32.30
2018-10-06T12:46:13.025Z,32.60
2018-10-06T12:48:40.294Z,32.70
2018-10-06T12:51:07.649Z,33.00
2018-10-06T12:53:34.900Z,33.60
2018-10-06T12:56:02.137Z,33.70
2018-10-06T12:58:29.637Z,33.20
2018-10-06T13:00:56.889Z,32.90
2018-10-06T13:03:24.125Z,32.30
2018-10-06T13:05:51.422Z,31.60
2018-10-06T13:08:18.614Z,31.50
2018-10-06T13:10:45.885Z,32.20
2018-10-06T13:13:13.186Z,33.20
2018-10-06T13:15:40.396Z,33.60
2018-10-06T13:18:07.614Z,33.30
2018-10-06T13:20:34.970Z,33.80
2018-10-06T13:23:02.245Z,34.30
2018-10-06T13:25:29.474Z,34.30
2018-10-06T13:27:57.013Z,34.10
2018-10-06T13:30:24.225Z,33.90
2018-10-06T13:32:51.442Z,34.40
2018-10-06T13:35:18.819Z,35.20
2018-10-06T13:37:46.058Z,35.70
2018-10-06T13:40:13.326Z,35.60
2018-10-06T13:42:40.585Z,36.10
2018-10-06T13:45:07.972Z,36.10
2018-10-06T13:47:35.168Z,36.20
2018-10-06T13:50:02.425Z,36.70
2018-10-06T13:52:29.731Z,37.00
2018-10-06T13:54:56.919Z,36.90
2018-10-06T13:57:24.255Z,36.70
2018-10-06T13:59:51.587Z,36.60
2018-10-06T14:02:18.796Z,37.30
2018-10-06T14:04:46.037Z,37.50
2018-10-06T14:07:13.401Z,37.60
2018-10-06T14:09:40.685Z,37.20
2018-10-06T14:12:07.905Z,36.70
2018-10-06T14:14:35.222Z,36.60
2018-10-06T14:17:02.429Z,36.70
2018-10-06T14:19:29.680Z,36.90
2018-10-06T14:21:57.232Z,36.70
2018-10-06T14:24:24.497Z,36.70
2018-10-06T14:26:51.737Z,37.00
2018-10-06T14:29:19.213Z,36.70
2018-10-06T14:31:46.442Z,36.40
2018-10-06T14:34:13.685Z,36.10
2018-10-06T14:36:41.239Z,35.70
2018-10-06T14:39:09.597Z,35.40
2018-10-06T14:41:36.877Z,35.00
2018-10-06T14:44:04.219Z,34.90
2018-10-06T14:46:31.420Z,34.80
2018-10-06T14:48:58.638Z,34.60
2018-10-06T14:51:26.030Z,34.70
2018-10-06T14:53:53.241Z,35.00
2018-10-06T14:56:20.539Z,35.40
2018-10-06T14:58:47.765Z,35.20
2018-10-06T15:01:15.010Z,35.50
2018-10-06T15:03:42.329Z,35.40
2018-10-06T15:06:09.590Z,35.30
2018-10-06T15:08:36.877Z,35.20
2018-10-06T15:11:04.150Z,34.70
2018-10-06T15:13:31.446Z,34.50
2018-10-06T15:15:58.783Z,34.30
2018-10-06T15:18:25.960Z,34.20
2018-10-06T15:20:53.319Z,33.90
2018-10-06T15:23:20.577Z,33.20
2018-10-06T15:25:47.886Z,32.40
2018-10-06T15:28:15.210Z,31.70
2018-10-06T15:30:42.468Z,30.90
2018-10-06T15:33:09.605Z,30.10
2018-10-06T15:35:36.888Z,29.50
2018-10-06T15:38:04.217Z,28.90
2018-10-06T15:40:31.559Z,28.40
2018-10-06T15:42:59.081Z,27.80
2018-10-06T15:45:26.338Z,27.30
2018-10-06T15:47:53.563Z,26.80
2018-10-06T15:50:20.774Z,26.50
2018-10-06T15:52:48.066Z,26.20
2018-10-06T15:55:15.277Z,25.90
2018-10-06T15:57:42.529Z,25.60
2018-10-06T16:00:09.841Z,25.40
2018-10-06T16:02:37.082Z,25.30
2018-10-06T16:05:04.408Z,25.10
2018-10-06T16:07:31.705Z,25.00
2018-10-06T16:09:59.073Z,24.90
2018-10-06T16:12:26.386Z,24.80
2018-10-06T16:14:53.714Z,24.60
2018-10-06T16:17:21.201Z,24.40
2018-10-06T16:19:48.663Z,24.10
2018-10-06T16:22:16.034Z,23.90
2018-10-06T16:24:43.324Z,23.80
2018-10-06T16:27:10.631Z,23.60
2018-10-06T16:29:37.862Z,23.50
2018-10-06T16:32:05.110Z,23.50
2018-10-06T16:34:32.537Z,23.30
2018-10-06T16:36:59.862Z,23.10
2018-10-06T16:39:27.081Z,23.00
2018-10-06T16:41:54.554Z,22.70
2018-10-06T16:44:21.810Z,22.50
2018-10-06T16:46:49.153Z,22.30
2018-10-06T16:49:16.390Z,22.20
2018-10-06T16:51:43.658Z,22.10
2018-10-06T16:54:10.878Z,22.10
2018-10-06T16:56:38.166Z,21.90
2018-10-06T16:59:05.517Z,21.80
2018-10-06T17:01:32.736Z,21.70
2018-10-06T17:03:59.994Z,21.50
2018-10-06T17:06:27.321Z,21.30
2018-10-06T17:08:54.520Z,21.00
2018-10-06T17:11:21.832Z,20.90
2018-10-06T17:13:49.103Z,20.70
2018-10-06T17:16:16.379Z,20.60
2018-10-06T17:18:43.805Z,20.50
2018-10-06T17:21:11.094Z,20.40
2018-10-06T17:23:38.338Z,20.20
2018-10-06T17:26:05.661Z,20.10
2018-10-06T17:28:32.921Z,19.90
2018-10-06T17:31:00.512Z,19.80
2018-10-06T17:33:27.754Z,19.60
2018-10-06T17:35:55.063Z,19.50
2018-10-06T17:38:22.353Z,19.30
2018-10-06T17:40:49.785Z,19.20
2018-10-06T17:43:17.022Z,19.30
2018-10-06T17:45:44.337Z,19.20
2018-10-06T17:48:11.592Z,19.20
2018-10-06T17:50:38.921Z,19.20
2018-10-06T17:53:06.253Z,19.10
2018-10-06T17:55:33.567Z,19.00
2018-10-06T17:58:00.772Z,18.90
2018-10-06T18:00:28.001Z,18.80
2018-10-06T18:02:55.163Z,18.80
2018-10-06T18:05:22.522Z,18.60
2018-10-06T18:07:49.688Z,18.50
2018-10-06T18:10:16.865Z,18.50
2018-10-06T18:12:44.038Z,18.40
2018-10-06T18:15:11.203Z,18.30
2018-10-06T18:17:38.463Z,18.10
2018-10-06T18:20:05.726Z,18.10
2018-10-06T18:22:32.987Z,18.00
2018-10-06T18:25:00.529Z,18.00
2018-10-06T18:27:27.730Z,17.90
2018-10-06T18:29:54.918Z,17.80
2018-10-06T18:32:22.119Z,17.70
2018-10-06T18:34:49.382Z,17.60
2018-10-06T18:37:16.688Z,17.50
2018-10-06T18:39:43.859Z,17.40
2018-10-06T18:42:11.096Z,17.40
2018-10-06T18:48:09.035Z,17.20
2018-10-06T18:50:36.202Z,17.10
2018-10-06T18:53:03.440Z,17.10
2018-10-06T18:55:30.686Z,17.00
2018-10-06T18:57:57.869Z,16.90
2018-10-06T19:00:25.202Z,16.80
2018-10-06T19:02:52.469Z,16.80
2018-10-06T19:05:19.755Z,16.70
2018-10-06T19:07:46.982Z,16.70
2018-10-06T19:10:14.209Z,16.70
2018-10-06T19:12:41.415Z,16.70
2018-10-06T19:15:08.605Z,16.70
2018-10-06T19:17:36.411Z,16.70
2018-10-06T19:20:04.367Z,16.70
2018-10-06T19:22:31.607Z,16.70
2018-10-06T19:24:58.847Z,16.60
2018-10-06T19:27:26.041Z,16.60
2018-10-06T19:29:53.222Z,16.60
2018-10-06T19:32:20.590Z,16.60
2018-10-06T19:34:47.819Z,16.60
2018-10-06T19:37:15.009Z,16.50
2018-10-06T19:39:42.295Z,16.50
2018-10-06T19:42:09.534Z,16.40
2018-10-06T19:44:36.750Z,16.20
2018-10-06T19:47:04.018Z,16.30
2018-10-06T19:49:31.214Z,16.30
2018-10-06T19:51:58.526Z,16.30
2018-10-06T19:54:25.869Z,16.40
2018-10-06T19:56:53.084Z,16.50
2018-10-06T19:59:20.488Z,16.60
2018-10-06T20:01:47.717Z,16.60
2018-10-06T20:04:15.114Z,16.60
2018-10-06T20:06:42.313Z,16.60
2018-10-06T20:09:10.436Z,16.60
2018-10-06T20:11:38.085Z,16.60
2018-10-06T20:14:05.477Z,16.60
2018-10-06T20:16:32.680Z,16.60
2018-10-06T20:19:00.026Z,16.60
2018-10-06T20:21:27.250Z,16.60
2018-10-06T20:23:54.462Z,16.60
2018-10-06T20:26:21.787Z,16.60
2018-10-06T20:28:48.978Z,16.50
2018-10-06T20:31:16.157Z,16.50
2018-10-06T20:33:43.370Z,16.50
2018-10-06T20:36:10.550Z,16.40
2018-10-06T20:38:37.786Z,16.40
2018-10-06T20:41:05.502Z,16.30
2018-10-06T20:43:32.798Z,16.20
2018-10-06T20:45:59.981Z,16.30
2018-10-06T20:48:27.164Z,16.20
2018-10-06T20:50:54.375Z,16.20
2018-10-06T20:53:21.589Z,16.20
2018-10-06T20:55:48.775Z,16.10
2018-10-06T20:58:16.081Z,16.10
2018-10-06T21:00:43.571Z,16.10
2018-10-06T21:03:10.802Z,16.10
2018-10-06T21:05:38.142Z,16.00
2018-10-06T21:08:05.530Z,16.00
2018-10-06T21:10:32.795Z,16.00
2018-10-06T21:13:00.059Z,16.00
2018-10-06T21:15:27.265Z,15.90
2018-10-06T21:17:54.461Z,15.90
2018-10-06T21:20:21.657Z,15.90
2018-10-06T21:22:48.941Z,15.90
2018-10-06T21:25:16.342Z,15.90
2018-10-06T21:27:43.484Z,15.80
2018-10-06T21:30:10.719Z,15.80
2018-10-06T21:32:37.898Z,15.80
2018-10-06T21:35:05.138Z,15.90
2018-10-06T21:37:32.289Z,15.90
2018-10-06T21:39:59.479Z,15.80
2018-10-06T21:42:26.722Z,15.80
2018-10-06T21:44:54.170Z,15.70
2018-10-06T21:47:21.374Z,15.70
2018-10-06T21:49:48.583Z,15.60
2018-10-06T21:52:15.791Z,15.60
2018-10-06T21:54:43.366Z,15.50
2018-10-06T21:57:10.638Z,15.40
2018-10-06T21:59:37.831Z,15.40
2018-10-06T22:02:05.142Z,15.40
2018-10-06T22:04:32.426Z,15.30
2018-10-06T22:06:59.667Z,15.30
2018-10-06T22:09:26.893Z,15.20
2018-10-06T22:11:54.179Z,15.20
2018-10-06T22:14:21.414Z,15.20
2018-10-06T22:16:48.662Z,15.10
2018-10-06T22:19:15.944Z,15.10
2018-10-06T22:21:43.217Z,15.00
2018-10-06T22:24:10.510Z,15.00
2018-10-06T22:26:37.922Z,14.90
2018-10-06T22:29:05.147Z,14.90
2018-10-06T22:31:32.945Z,14.80
2018-10-06T22:34:00.170Z,14.80
2018-10-06T22:36:27.478Z,14.70
2018-10-06T22:38:54.746Z,14.60
2018-10-06T22:41:22.019Z,14.60
2018-10-06T22:43:49.383Z,14.50
2018-10-06T22:46:16.678Z,14.50
2018-10-06T22:48:44.027Z,14.40
2018-10-06T22:51:11.200Z,14.20
2018-10-06T22:53:38.535Z,14.20
2018-10-06T22:56:05.743Z,14.10
2018-10-06T22:58:33.032Z,14.00
2018-10-06T23:01:00.247Z,13.90
2018-10-06T23:03:27.482Z,13.80
2018-10-06T23:05:54.778Z,13.70
2018-10-06T23:08:22.021Z,13.70
2018-10-06T23:10:49.275Z,13.70
2018-10-06T23:13:16.588Z,13.70
2018-10-06T23:15:43.909Z,13.70
2018-10-06T23:18:11.289Z,13.70
2018-10-06T23:20:38.562Z,13.80
2018-10-06T23:23:05.975Z,13.80
2018-10-06T23:25:33.488Z,13.90
2018-10-06T23:28:01.183Z,14.00
2018-10-06T23:30:28.762Z,14.00
2018-10-06T23:32:56.029Z,14.10
2018-10-06T23:35:23.563Z,14.10
2018-10-06T23:37:51.034Z,14.20
2018-10-06T23:40:18.446Z,14.30
2018-10-06T23:42:45.877Z,14.40
2018-10-06T23:45:13.344Z,14.40
2018-10-06T23:47:40.734Z,14.40
2018-10-06T23:50:08.300Z,14.40
2018-10-06T23:52:35.652Z,14.40
2018-10-06T23:55:02.941Z,14.30
2018-10-06T23:57:30.309Z,14.30
2018-10-06T23:59:57.640Z,14.30
